sensor_id;sensor_type;location;lat;lon;timestamp;temperature;humidity
12843;DHT22;35724;49.324;-123.118;2022-11-15T00:57:22;21.60;57.60
12843;DHT22;35724;49.324;-123.118;2022-11-15T01:07:51;21.90;52.30
12843;DHT22;35724;49.324;-123.118;2022-11-15T01:18:22;22.00;50.50
12843;DHT22;35724;49.324;-123.118;2022-11-15T01:28:57;22.10;49.80
12843;DHT22;35724;49.324;-123.118;2022-11-15T01:39:27;22.20;50.60
12843;DHT22;35724;49.324;-123.118;2022-11-15T01:50:00;22.20;50.00
12843;DHT22;35724;49.324;-123.118;2022-11-15T02:00:34;22.20;49.80
12843;DHT22;35724;49.324;-123.118;2022-11-15T02:11:19;22.30;49.50
12843;DHT22;35724;49.324;-123.118;2022-11-15T03:32:13;23.10;51.20
12843;DHT22;35724;49.324;-123.118;2022-11-15T05:36:33;23.80;48.40
12843;DHT22;35724;49.324;-123.118;2022-11-15T05:49:23;23.80;48.60
12843;DHT22;35724;49.324;-123.118;2022-11-15T06:00:09;23.80;48.50
12843;DHT22;35724;49.324;-123.118;2022-11-15T07:24:51;24.60;53.80
12843;DHT22;35724;49.324;-123.118;2022-11-15T08:00:36;24.80;55.40
12843;DHT22;35724;49.324;-123.118;2022-11-15T08:24:59;24.50;52.90
12843;DHT22;35724;49.324;-123.118;2022-11-15T09:25:20;24.40;46.70
12843;DHT22;35724;49.324;-123.118;2022-11-15T09:35:53;24.30;46.10
12843;DHT22;35724;49.324;-123.118;2022-11-15T10:11:00;24.30;44.70
12843;DHT22;35724;49.324;-123.118;2022-11-15T10:22:25;24.30;44.80
12843;DHT22;35724;49.324;-123.118;2022-11-15T10:32:37;24.30;44.40
12843;DHT22;35724;49.324;-123.118;2022-11-15T10:42:44;24.30;44.20
12843;DHT22;35724;49.324;-123.118;2022-11-15T10:52:53;24.30;43.90
12843;DHT22;35724;49.324;-123.118;2022-11-15T11:03:02;24.30;43.60
12843;DHT22;35724;49.324;-123.118;2022-11-15T11:13:21;24.30;43.50
12843;DHT22;35724;49.324;-123.118;2022-11-15T11:23:43;24.30;43.60
12843;DHT22;35724;49.324;-123.118;2022-11-15T11:34:00;24.30;43.40
12843;DHT22;35724;49.324;-123.118;2022-11-15T11:44:24;24.30;43.20
12843;DHT22;35724;49.324;-123.118;2022-11-15T11:54:41;24.30;43.00
12843;DHT22;35724;49.324;-123.118;2022-11-15T12:04:51;24.30;42.90
12843;DHT22;35724;49.324;-123.118;2022-11-15T12:15:04;24.30;42.70
12843;DHT22;35724;49.324;-123.118;2022-11-15T12:25:22;24.30;42.60
12843;DHT22;35724;49.324;-123.118;2022-11-15T12:35:35;24.40;42.30
12843;DHT22;35724;49.324;-123.118;2022-11-15T12:45:44;24.30;42.20
12843;DHT22;35724;49.324;-123.118;2022-11-15T12:56:19;24.40;42.20
12843;DHT22;35724;49.324;-123.118;2022-11-15T13:06:39;24.40;42.10
12843;DHT22;35724;49.324;-123.118;2022-11-15T13:16:49;24.40;42.00
12843;DHT22;35724;49.324;-123.118;2022-11-15T13:27:12;24.40;42.00
12843;DHT22;35724;49.324;-123.118;2022-11-15T13:37:31;24.40;41.80
12843;DHT22;35724;49.324;-123.118;2022-11-15T13:47:38;24.40;41.90
12843;DHT22;35724;49.324;-123.118;2022-11-15T13:57:48;24.40;41.60
12843;DHT22;35724;49.324;-123.118;2022-11-15T14:07:59;24.40;41.50
12843;DHT22;35724;49.324;-123.118;2022-11-15T14:28:45;24.40;41.50
12843;DHT22;35724;49.324;-123.118;2022-11-15T14:38:53;24.40;41.40
12843;DHT22;35724;49.324;-123.118;2022-11-15T14:49:02;24.40;41.40
12843;DHT22;35724;49.324;-123.118;2022-11-15T14:59:09;24.50;41.00
12843;DHT22;35724;49.324;-123.118;2022-11-15T15:09:18;24.40;40.90
12843;DHT22;35724;49.324;-123.118;2022-11-15T15:19:25;24.40;40.90
12843;DHT22;35724;49.324;-123.118;2022-11-15T15:29:34;24.60;41.30
12843;DHT22;35724;49.324;-123.118;2022-11-15T15:39:41;24.70;41.50
12843;DHT22;35724;49.324;-123.118;2022-11-15T15:49:50;24.50;41.50
12843;DHT22;35724;49.324;-123.118;2022-11-15T15:59:57;24.40;40.70
12843;DHT22;35724;49.324;-123.118;2022-11-15T16:10:19;24.30;43.80
12843;DHT22;35724;49.324;-123.118;2022-11-15T16:20:33;24.50;43.60
12843;DHT22;35724;49.324;-123.118;2022-11-15T16:30:42;24.60;45.20
12843;DHT22;35724;49.324;-123.118;2022-11-15T16:40:52;24.20;45.70
12843;DHT22;35724;49.324;-123.118;2022-11-15T16:51:01;24.00;45.30
12843;DHT22;35724;49.324;-123.118;2022-11-15T17:01:17;23.80;46.50
12843;DHT22;35724;49.324;-123.118;2022-11-15T17:11:26;23.70;45.70
12843;DHT22;35724;49.324;-123.118;2022-11-15T17:21:33;23.80;46.30
12843;DHT22;35724;49.324;-123.118;2022-11-15T17:31:42;23.70;45.60
12843;DHT22;35724;49.324;-123.118;2022-11-15T17:41:49;23.70;46.60
12843;DHT22;35724;49.324;-123.118;2022-11-15T17:51:58;23.90;46.20
12843;DHT22;35724;49.324;-123.118;2022-11-15T18:02:08;23.90;46.60
12843;DHT22;35724;49.324;-123.118;2022-11-15T18:12:17;24.00;49.80
12843;DHT22;35724;49.324;-123.118;2022-11-15T18:22:27;24.00;49.80
12843;DHT22;35724;49.324;-123.118;2022-11-15T18:32:36;24.00;49.50
12843;DHT22;35724;49.324;-123.118;2022-11-15T18:42:43;23.90;49.70
12843;DHT22;35724;49.324;-123.118;2022-11-15T18:52:51;23.90;50.70
12843;DHT22;35724;49.324;-123.118;2022-11-15T19:02:58;23.70;49.20
12843;DHT22;35724;49.324;-123.118;2022-11-15T19:13:07;23.60;49.30
12843;DHT22;35724;49.324;-123.118;2022-11-15T19:23:15;23.60;49.80
12843;DHT22;35724;49.324;-123.118;2022-11-15T19:33:23;23.50;48.80
12843;DHT22;35724;49.324;-123.118;2022-11-15T19:43:31;23.40;47.20
12843;DHT22;35724;49.324;-123.118;2022-11-15T19:53:40;23.30;45.60
12843;DHT22;35724;49.324;-123.118;2022-11-15T20:03:47;23.20;45.30
12843;DHT22;35724;49.324;-123.118;2022-11-15T20:13:58;23.00;44.90
12843;DHT22;35724;49.324;-123.118;2022-11-15T20:24:07;22.70;44.70
12843;DHT22;35724;49.324;-123.118;2022-11-15T20:34:16;20.70;46.90
12843;DHT22;35724;49.324;-123.118;2022-11-15T20:44:24;19.80;48.60
12843;DHT22;35724;49.324;-123.118;2022-11-15T20:54:32;19.50;48.90
12843;DHT22;35724;49.324;-123.118;2022-11-15T21:04:39;19.40;49.00
12843;DHT22;35724;49.324;-123.118;2022-11-15T21:14:49;19.10;49.90
12843;DHT22;35724;49.324;-123.118;2022-11-15T21:24:56;18.70;50.70
12843;DHT22;35724;49.324;-123.118;2022-11-15T21:35:06;18.60;51.40
12843;DHT22;35724;49.324;-123.118;2022-11-15T21:45:13;19.40;51.20
12843;DHT22;35724;49.324;-123.118;2022-11-15T21:55:22;20.60;49.90
12843;DHT22;35724;49.324;-123.118;2022-11-15T22:05:29;21.10;48.90
12843;DHT22;35724;49.324;-123.118;2022-11-15T22:15:38;21.30;48.30
12843;DHT22;35724;49.324;-123.118;2022-11-15T22:25:46;21.00;48.20
12843;DHT22;35724;49.324;-123.118;2022-11-15T22:35:54;21.30;47.60
12843;DHT22;35724;49.324;-123.118;2022-11-15T22:46:02;21.80;46.90
12843;DHT22;35724;49.324;-123.118;2022-11-15T22:56:12;21.90;46.30
12843;DHT22;35724;49.324;-123.118;2022-11-15T23:06:23;22.10;46.20
12843;DHT22;35724;49.324;-123.118;2022-11-15T23:16:32;22.30;46.00
12843;DHT22;35724;49.324;-123.118;2022-11-15T23:26:43;22.30;46.00
12843;DHT22;35724;49.324;-123.118;2022-11-15T23:36:52;22.20;46.60
12843;DHT22;35724;49.324;-123.118;2022-11-15T23:46:59;22.20;47.00
12843;DHT22;35724;49.324;-123.118;2022-11-15T23:57:08;22.30;47.30
